PAIWUHMD

Guest
Details From PAIW - WALES
To UHMD - Provideniya Bay
Flight Number -
Tags generated
Created
Modified
Stats Distance 159 nm / 294 km
Max Altitude 18,700 ft / 5,700 m
Waypoints 3
Social Downloads 1
Likes 0
Share VATSIM

Download

Looking for another format? Having issues loading an existing format? Contact us
Advertisement - Login to hide

Notes

Basic altitude profile: - Ascent Rate: 2500ft/min - Ascent Speed: 250kts - Cruise Altitude: 35000ft - Cruise Speed: 420kts - Descent Rate: 1500ft/min - Descent Speed: 250kts Options: - Use NATs: yes - Use PACOTS: yes - Use low airways: yes - Use high airways: yes

Route

PAIW ADLEN UHMD

ID Type Via Altitude Latitude Longitude Leg Dist Tot Dist Heading (true) Name
O PAIW APT - 0 ft / 0 m 65.62259˚ -168.09494˚ - 0 nm - WALES
ADLEN FIX - 18,700 ft / 5,700 m 64.77333˚ -169.78500˚ 66 nm 66 nm 221° / 219° -
O UHMD APT - 0 ft / 0 m 64.36548˚ -173.23902˚ 92 nm 158 nm 256° / 253° Provideniya Bay

Altitude Profile

Advertisement - Login to hide

PAIW

Details ICAO PAIW (WAA)
Name WALES
Region USA (Alaska)
Timezone America/Nome (UTC-9.0)
Stats Elevation 22 ft / 7 m (AMSL)
Location 65.622585° -168.094939°
Runways 1
Magnetic Variation 8.770° E

METAR

PAIW 122156Z AUTO 08013KT 10SM CLR M07/M08 A2954 RMK AO2 SLP005 T10671083 FZRANO

Decode

TAF

Not found

Departure Runways

ID Width Length Bearing (true) Bearing (mag) Surface Threshold Offset Overrun Length
18 75 ft / 23 m 3,990 ft / 1,216 m 188.49° 179.72° Gravel 0 ft / 0 m 300 ft / 91 m
36 75 ft / 23 m 3,990 ft / 1,216 m 8.49° 359.72° Gravel 0 ft / 0 m 300 ft / 91 m

UHMD

Details ICAO UHMD (PVS)
Name Provideniya Bay
Region Russia
Timezone Asia/Anadyr (UTC+12.0)
Stats Elevation 71 ft / 22 m (AMSL)
Location 64.365475° -173.239022°
Runways 2
Magnetic Variation 6.144° E

METAR

UHMD 122200Z 01004MPS CAVOK M09/M14 Q1001 RMK QFE750/1000

Decode

TAF

Not found

Destination Runways

ID Width Length Bearing (true) Bearing (mag) Surface Threshold Offset Overrun Length
01 299 ft / 91 m 8,140 ft / 2,481 m 21.46° 15.32° Gravel 0 ft / 0 m 0 ft / 0 m
03 213 ft / 65 m 3,998 ft / 1,219 m 32.10° 25.96° Gravel 0 ft / 0 m 0 ft / 0 m
19 299 ft / 91 m 8,140 ft / 2,481 m 201.48° 195.34° Gravel 0 ft / 0 m 0 ft / 0 m
21 213 ft / 65 m 3,998 ft / 1,219 m 212.11° 205.97° Gravel 0 ft / 0 m 0 ft / 0 m

Popular Alternatives